Préparation du vol

Réserver un ULM chez EFU                     Découvrir nos appareils                     Coordonnées de l'école

Available data for LFPN from the past hour

METAR
LFPN 220000Z AUTO 33003KT 5000 BR NSC 07/05 Q1030 TEMPO 0900 BCFG
TAF
TAF LFPN 211700Z 2118/2203 04005KT CAVOK TEMPO 2201/2203 0900 BCFG

Pour avoir des informations détaillée sur la météo à venir vous pouvez consulter Aeroweb

prevision des pluies

Nota : Heuro locale = heure CET

[table “3” not found /]

OLIVIA

Outil en Ligne Intégré de Visualisation d'Informations Aéronautiques

OLIVIA